Time;durP1;ratioP1;P1;durP2;ratioP2;P2;SDS_P1;SDS_P2;PMS_P1;PMS_P2;Temp;Humidity;BMP_temperature;BMP_pressure;BME280_temperature;BME280_humidity;BME280_pressure;Samples;Min_cycle;Max_cycle;Signal;HPM_P1;HPM_P2
2023/01/11 00:00:18;;;;;;;3.35;1.20;;;;;;;2.60;74.26;94189.72;4965540;28;20059;-71
2023/01/11 00:02:44;;;;;;;2.35;1.38;;;;;;;2.55;74.24;94196.88;4973200;28;20111;-72
2023/01/11 00:05:10;;;;;;;3.42;1.52;;;;;;;2.54;74.25;94200.38;4973316;28;20027;-71
2023/01/11 00:07:36;;;;;;;3.50;1.75;;;;;;;2.39;73.58;94194.41;4940127;28;20027;-71
2023/01/11 00:10:03;;;;;;;2.25;1.45;;;;;;;2.41;73.55;94205.41;4973396;28;20409;-71
2023/01/11 00:12:29;;;;;;;2.03;1.33;;;;;;;2.46;73.67;94203.38;4972979;28;20030;-71
2023/01/11 00:14:55;;;;;;;2.85;1.70;;;;;;;2.60;74.06;94220.50;4957074;28;20066;-71
2023/01/11 00:17:21;;;;;;;2.65;1.50;;;;;;;2.46;74.21;94212.81;4956951;28;20030;-72
2023/01/11 00:19:46;;;;;;;3.88;2.20;;;;;;;2.52;74.85;94225.28;4956879;28;20034;-71
2023/01/11 00:22:11;;;;;;;3.05;1.70;;;;;;;2.29;73.97;94220.72;4972964;28;20470;-72
2023/01/11 00:24:37;;;;;;;3.05;1.70;;;;;;;2.35;73.12;94225.47;4973150;28;20405;-71
2023/01/11 00:27:02;;;;;;;2.40;1.58;;;;;;;2.34;73.60;94222.09;4956718;28;20417;-71
2023/01/11 00:29:28;;;;;;;2.90;2.00;;;;;;;2.37;74.15;94221.06;4956680;28;20046;-72
2023/01/11 00:31:53;;;;;;;4.18;2.75;;;;;;;2.40;74.91;94214.03;4972817;28;20023;-72
2023/01/11 00:34:19;;;;;;;5.43;3.10;;;;;;;2.34;74.98;94222.09;4972511;28;20042;-72
2023/01/11 00:36:44;;;;;;;5.32;2.90;;;;;;;2.40;74.60;94228.59;4945807;29;20023;-72
2023/01/11 00:39:10;;;;;;;4.80;2.97;;;;;;;2.40;74.62;94223.47;4953460;28;20044;-71
2023/01/11 00:49:47;;;;;;;3.88;1.92;;;;;;;2.05;74.53;94231.50;4972558;28;20097;-71
2023/01/11 00:52:13;;;;;;;5.68;3.35;;;;;;;1.73;75.42;94226.50;4969934;28;20038;-71
2023/01/11 00:54:39;;;;;;;5.63;3.65;;;;;;;1.67;75.74;94221.75;4971962;28;20050;-71
2023/01/11 00:57:06;;;;;;;5.47;3.75;;;;;;;1.81;75.61;94235.47;4956289;28;20027;-71
2023/01/11 00:59:35;;;;;;;9.40;5.72;;;;;;;1.88;75.80;94242.72;4943664;28;20091;-71
2023/01/11 01:02:00;;;;;;;9.35;5.15;;;;;;;1.83;75.47;94234.47;4937373;29;20024;-71
2023/01/11 01:04:26;;;;;;;9.68;5.28;;;;;;;1.84;75.32;94237.84;4953122;29;20478;-72
2023/01/11 01:06:51;;;;;;;8.98;4.65;;;;;;;1.75;75.74;94228.97;4959420;28;20031;-71
2023/01/11 01:09:17;;;;;;;7.80;4.68;;;;;;;1.82;75.75;94237.13;4987725;28;20035;-71
2023/01/11 01:11:42;;;;;;;9.07;4.68;;;;;;;1.81;75.63;94243.16;4988017;28;20035;-72
2023/01/11 01:14:28;;;;;;;8.00;4.40;;;;;;;1.76;75.42;94244.25;4961545;28;20047;-72
2023/01/11 01:17:05;;;;;;;7.35;4.55;;;;;;;1.79;74.95;94244.09;4965433;28;20035;-72
2023/01/11 01:19:31;;;;;;;7.82;4.55;;;;;;;1.82;74.98;94234.56;4944079;28;20035;-72
2023/01/11 01:21:57;;;;;;;7.03;4.20;;;;;;;1.95;74.49;94245.75;4965189;28;20054;-72
2023/01/11 01:24:23;;;;;;;8.30;4.20;;;;;;;1.81;74.94;94230.34;4968399;28;20046;-71
2023/01/11 01:26:48;;;;;;;6.45;3.92;;;;;;;1.70;74.57;94257.41;4953227;28;20027;-71
2023/01/11 01:29:14;;;;;;;6.18;3.75;;;;;;;1.55;75.01;94256.53;4952120;28;20086;-71
2023/01/11 01:31:41;;;;;;;5.47;3.40;;;;;;;1.10;76.48;94236.91;4970153;28;20026;-71
2023/01/11 01:34:07;;;;;;;4.82;2.92;;;;;;;1.27;77.05;94254.69;4951919;29;20094;-71
2023/01/11 01:36:33;;;;;;;4.72;3.30;;;;;;;1.29;76.69;94255.44;4964192;28;20119;-71
2023/01/11 01:38:59;;;;;;;8.60;5.03;;;;;;;1.42;76.46;94257.31;4968403;28;20118;-71
2023/01/11 01:41:25;;;;;;;5.68;3.85;;;;;;;1.42;76.69;94260.72;4955366;28;20042;-71
2023/01/11 01:43:59;;;;;;;5.85;3.20;;;;;;;1.44;76.18;94264.00;4971414;28;20405;-71
2023/01/11 01:46:29;;;;;;;4.45;2.53;;;;;;;1.32;76.16;94260.38;4959760;28;20038;-71
2023/01/11 01:49:10;;;;;;;3.58;2.17;;;;;;;1.15;76.75;94252.81;4954994;28;20042;-71
2023/01/11 01:51:47;;;;;;;2.85;1.70;;;;;;;1.29;76.23;94254.63;4963591;28;20049;-72
2023/01/11 01:54:16;;;;;;;4.10;2.58;;;;;;;1.30;76.20;94249.41;4969136;28;20074;-71
2023/01/11 01:56:48;;;;;;;3.47;2.22;;;;;;;1.24;76.53;94247.19;4967489;28;20114;-71
2023/01/11 01:59:14;;;;;;;4.63;2.40;;;;;;;1.16;76.18;94254.47;4951904;28;20055;-71
2023/01/11 02:01:45;;;;;;;3.47;2.10;;;;;;;1.04;76.34;94255.16;4967500;28;20034;-72
2023/01/11 02:04:31;;;;;;;;;;;;;;;1.16;76.46;94257.03;4942153;28;20475;-72
2023/01/11 02:07:02;;;;;;;4.47;2.28;;;;;;;0.80;77.09;94244.50;4976674;28;19941;-71
2023/01/11 02:09:47;;;;;;;4.10;2.47;;;;;;;0.88;77.58;94260.25;4968333;28;20058;-71
2023/01/11 02:12:13;;;;;;;10.02;5.35;;;;;;;0.79;77.14;94265.88;4968938;28;20035;-72
2023/01/11 02:14:38;;;;;;;5.60;3.22;;;;;;;0.66;77.45;94270.81;4951660;28;20046;-71
2023/01/11 02:17:04;;;;;;;4.32;2.88;;;;;;;0.79;77.91;94283.78;4967435;28;20062;-71
2023/01/11 02:19:46;;;;;;;3.65;2.80;;;;;;;0.88;78.16;94294.31;4970969;28;20034;-71
2023/01/11 02:22:13;;;;;;;4.30;2.90;;;;;;;0.93;77.84;94295.81;4973082;28;20037;-72
2023/01/11 02:24:45;;;;;;;3.97;2.50;;;;;;;0.97;77.96;94298.13;4987180;28;20494;-71
2023/01/11 02:27:10;;;;;;;;;;;;;;;0.96;77.86;94303.34;4972617;28;20043;-71
2023/01/11 02:30:07;;;;;;;4.00;2.45;;;;;;;0.98;78.00;94309.19;4954533;28;20367;-71
2023/01/11 02:33:02;;;;;;;4.07;2.33;;;;;;;1.11;77.41;94307.63;4951773;28;20051;-71
2023/01/11 02:35:39;;;;;;;3.85;2.50;;;;;;;1.14;77.94;94304.88;4921119;29;20038;-71
2023/01/11 02:38:28;;;;;;;4.05;2.22;;;;;;;1.28;77.66;94314.38;4952836;28;20035;-71
2023/01/11 02:41:08;;;;;;;4.15;2.72;;;;;;;1.44;77.49;94319.50;4960539;28;20054;-71
2023/01/11 02:46:55;;;;;;;4.82;3.00;;;;;;;1.50;77.50;94324.25;4971928;28;20097;-72
2023/01/11 02:49:34;;;;;;;4.85;2.60;;;;;;;1.53;77.44;94318.97;4958966;28;20089;-71
2023/01/11 02:52:10;;;;;;;4.68;2.70;;;;;;;1.56;77.59;94323.91;4974413;28;20043;-71
2023/01/11 02:54:36;;;;;;;6.88;3.45;;;;;;;1.43;77.71;94292.25;4974705;28;20416;-71
2023/01/11 02:57:01;;;;;;;7.97;3.90;;;;;;;1.65;77.25;94320.06;4974450;28;20508;-71
2023/01/11 02:59:31;;;;;;;7.47;4.20;;;;;;;1.67;77.20;94324.19;4974341;28;20050;-71
2023/01/11 03:01:56;;;;;;;7.95;4.20;;;;;;;1.62;77.46;94318.47;4974444;28;20031;-71
2023/01/11 03:04:22;;;;;;;8.35;4.38;;;;;;;1.76;77.06;94326.22;4974511;28;20057;-71
2023/01/11 03:06:48;;;;;;;8.15;4.78;;;;;;;1.74;76.80;94315.22;4975555;28;20448;-71
2023/01/11 03:09:19;;;;;;;7.38;4.22;;;;;;;1.78;77.29;94323.56;4974284;28;20571;-71
2023/01/11 03:14:55;;;;;;;9.18;4.40;;;;;;;1.89;76.30;94322.94;4975692;28;20046;-71
2023/01/11 03:17:29;;;;;;;7.82;4.22;;;;;;;1.91;76.79;94326.25;4966324;28;20086;-72
2023/01/11 03:20:28;;;;;;;5.45;3.47;;;;;;;1.76;77.36;94320.28;4954904;29;20139;-71
2023/01/11 03:22:53;;;;;;;5.95;3.85;;;;;;;1.78;77.12;94326.13;4963465;28;20050;-71
2023/01/11 03:25:31;;;;;;;6.20;3.45;;;;;;;1.82;76.97;94319.91;4970990;28;20486;-71
2023/01/11 03:28:04;;;;;;;8.38;4.28;;;;;;;1.74;76.99;94315.22;4955224;28;20505;-71
2023/01/11 03:30:37;;;;;;;7.72;4.80;;;;;;;1.75;77.26;94319.41;4935639;29;20015;-72
2023/01/11 03:33:21;;;;;;;7.15;4.15;;;;;;;1.65;77.25;94313.19;4938067;29;20095;-71
2023/01/11 03:35:57;;;;;;;4.97;3.55;;;;;;;1.67;77.10;94319.06;4939592;29;20027;-72
2023/01/11 03:38:28;;;;;;;5.72;3.60;;;;;;;1.73;76.93;94318.72;4954594;28;20047;-71
2023/01/11 03:40:56;;;;;;;5.37;3.10;;;;;;;1.66;76.69;94317.38;4954967;28;20395;-72
2023/01/11 03:43:22;;;;;;;4.15;3.20;;;;;;;1.73;76.73;94330.69;4965709;28;20390;-72
2023/01/11 03:46:18;;;;;;;4.18;2.90;;;;;;;1.77;76.90;94327.84;4957557;28;20023;-72
2023/01/11 03:49:01;;;;;;;4.00;2.72;;;;;;;1.91;77.02;94332.19;4973404;28;20050;-72
2023/01/11 03:51:28;;;;;;;5.07;3.70;;;;;;;1.86;76.53;94323.13;4959726;28;20035;-71
2023/01/11 03:54:02;;;;;;;6.05;4.15;;;;;;;1.80;76.79;94301.25;4957011;28;20074;-72
2023/01/11 03:56:46;;;;;;;8.20;5.20;;;;;;;1.95;77.08;94331.13;4937051;29;20042;-71
2023/01/11 03:59:12;;;;;;;6.43;4.80;;;;;;;2.00;77.27;94325.72;4967433;28;20054;-71
2023/01/11 04:01:37;;;;;;;7.50;4.88;;;;;;;1.99;76.83;94324.09;4957701;28;20436;-71
2023/01/11 04:04:03;;;;;;;5.72;4.47;;;;;;;1.95;76.57;94328.56;4972788;28;20041;-71
2023/01/11 04:06:28;;;;;;;5.97;4.55;;;;;;;1.68;76.55;94299.38;4988653;28;20038;-71
2023/01/11 04:08:54;;;;;;;9.27;6.28;;;;;;;1.85;76.94;94332.56;4957806;28;20437;-71
2023/01/11 04:11:19;;;;;;;10.45;7.35;;;;;;;1.56;77.27;94340.13;4988956;28;20409;-71
2023/01/11 04:13:45;;;;;;;10.52;6.95;;;;;;;1.65;77.64;94354.16;4971117;28;20039;-72
2023/01/11 04:16:10;;;;;;;8.25;6.00;;;;;;;1.70;77.33;94354.72;4972824;28;20022;-71
2023/01/11 04:18:36;;;;;;;9.25;6.10;;;;;;;1.90;76.34;94360.47;4952999;29;20035;-71
2023/01/11 04:21:01;;;;;;;5.95;4.72;;;;;;;1.82;77.28;94354.97;4969170;28;20023;-72
2023/01/11 04:23:26;;;;;;;6.07;4.68;;;;;;;1.81;77.51;94364.34;4966249;28;20046;-71
2023/01/11 04:25:52;;;;;;;6.18;4.03;;;;;;;1.76;77.43;94382.56;4963341;28;20035;-71
2023/01/11 04:28:17;;;;;;;6.03;4.38;;;;;;;1.69;77.29;94360.75;4972565;28;20405;-71
2023/01/11 04:30:43;;;;;;;7.07;4.40;;;;;;;1.75;77.71;94370.66;4987950;28;20042;-71
2023/01/11 04:33:11;;;;;;;6.22;3.72;;;;;;;1.88;77.45;94373.38;4972023;28;20042;-72
2023/01/11 04:35:37;;;;;;;5.47;3.70;;;;;;;1.93;77.20;94373.94;4970539;28;20029;-71
2023/01/11 04:38:02;;;;;;;5.72;4.07;;;;;;;1.96;77.02;94383.19;4955512;28;20040;-72
2023/01/11 04:40:28;;;;;;;8.93;4.63;;;;;;;1.94;76.97;94375.56;4957859;28;20027;-71
2023/01/11 04:42:53;;;;;;;9.18;4.90;;;;;;;1.96;76.77;94378.06;4967247;28;20050;-71
2023/01/11 04:45:19;;;;;;;8.00;4.65;;;;;;;1.90;76.91;94384.34;4953605;28;20030;-71
2023/01/11 04:47:44;;;;;;;10.93;5.10;;;;;;;1.89;76.06;94369.06;4945403;28;20045;-71
2023/01/11 04:50:10;;;;;;;8.13;5.68;;;;;;;2.05;76.47;94382.66;4971974;28;20082;-72
2023/01/11 04:52:36;;;;;;;10.10;5.55;;;;;;;2.06;76.97;94389.44;4970960;28;20493;-72
2023/01/11 04:55:01;;;;;;;10.38;4.90;;;;;;;1.95;76.53;94374.69;4968575;28;20041;-71
2023/01/11 04:57:27;;;;;;;8.23;4.53;;;;;;;2.09;76.86;94398.69;4966357;28;20501;-72
2023/01/11 04:59:52;;;;;;;9.90;5.40;;;;;;;2.06;76.82;94396.28;4972192;28;20062;-72
2023/01/11 05:02:18;;;;;;;12.63;8.20;;;;;;;2.11;76.97;94397.69;4959135;28;20034;-72
2023/01/11 05:04:43;;;;;;;6.50;4.40;;;;;;;2.03;76.62;94401.59;4972468;28;20039;-71
2023/01/11 05:07:09;;;;;;;6.60;4.20;;;;;;;2.07;76.13;94410.78;4969682;28;20061;-70
2023/01/11 05:09:34;;;;;;;5.28;3.65;;;;;;;2.10;75.85;94408.88;4971410;28;20069;-71
2023/01/11 05:12:00;;;;;;;10.80;6.35;;;;;;;1.94;76.31;94390.94;4969055;28;20019;-69
2023/01/11 05:14:25;;;;;;;6.93;4.47;;;;;;;2.00;76.02;94413.66;4947915;28;20031;-71
2023/01/11 05:16:51;;;;;;;6.50;4.00;;;;;;;2.17;75.66;94417.88;4967631;28;20060;-71
2023/01/11 05:19:16;;;;;;;6.78;4.20;;;;;;;2.14;76.33;94423.13;4951828;29;20098;-70
2023/01/11 05:21:42;;;;;;;7.15;4.40;;;;;;;2.12;76.60;94424.97;4970733;28;20038;-70
2023/01/11 05:24:12;;;;;;;7.05;4.70;;;;;;;2.12;76.28;94429.28;4970871;28;20042;-70
2023/01/11 05:26:38;;;;;;;6.38;4.70;;;;;;;2.11;76.28;94425.06;4970813;28;20069;-70
2023/01/11 05:29:05;;;;;;;6.13;4.35;;;;;;;2.14;76.38;94425.69;4952454;28;20105;-70
2023/01/11 05:31:31;;;;;;;5.82;4.10;;;;;;;2.11;76.09;94418.19;4964603;28;20425;-70
2023/01/11 05:33:57;;;;;;;6.53;4.20;;;;;;;2.20;75.97;94422.81;4970463;28;20042;-70
2023/01/11 05:36:24;;;;;;;5.85;4.00;;;;;;;2.13;75.98;94431.75;4954570;28;20129;-70
2023/01/11 05:38:50;;;;;;;5.72;3.97;;;;;;;2.07;75.64;94421.84;4986635;28;20482;-70
2023/01/11 05:41:16;;;;;;;6.15;3.90;;;;;;;2.18;75.14;94432.31;4945742;28;20030;-70
2023/01/11 05:46:30;;;;;;;4.85;3.63;;;;;;;2.06;75.74;94439.84;4961778;28;20440;-69
2023/01/11 05:48:55;;;;;;;6.60;4.03;;;;;;;1.95;75.38;94427.63;4949700;28;20039;-69
2023/01/11 05:51:24;;;;;;;8.07;4.30;;;;;;;2.11;75.34;94443.81;4965246;28;20039;-69
2023/01/11 05:53:50;;;;;;;7.97;4.97;;;;;;;2.14;75.69;94443.63;4969086;28;20134;-69
2023/01/11 05:56:15;;;;;;;5.68;3.30;;;;;;;2.09;74.87;94448.22;4952934;28;20077;-70
2023/01/11 05:58:40;;;;;;;5.05;3.25;;;;;;;2.03;75.23;94445.16;4963289;28;20070;-70
2023/01/11 06:01:06;;;;;;;4.80;3.60;;;;;;;1.92;75.47;94454.28;4965233;28;20037;-69
2023/01/11 06:03:32;;;;;;;4.38;3.28;;;;;;;2.05;75.00;94448.47;4957819;28;20030;-71
2023/01/11 06:05:57;;;;;;;8.07;5.32;;;;;;;2.06;75.03;94455.22;4968082;28;20050;-69
2023/01/11 06:08:23;;;;;;;5.07;3.50;;;;;;;2.04;75.09;94464.75;4951990;28;20050;-70
2023/01/11 06:10:52;;;;;;;4.18;2.83;;;;;;;2.08;74.59;94467.06;4969689;28;20030;-70
2023/01/11 06:13:26;;;;;;;5.63;3.55;;;;;;;2.14;75.41;94478.69;4969623;28;20199;-70
2023/01/11 06:15:59;;;;;;;6.80;5.15;;;;;;;2.00;75.92;94457.22;4957922;28;20039;-70
2023/01/11 06:18:26;;;;;;;18.52;11.38;;;;;;;2.12;76.22;94468.56;4971590;28;20460;-70
2023/01/11 06:20:52;;;;;;;16.13;9.93;;;;;;;2.12;75.87;94476.25;4951985;28;20031;-70
2023/01/11 06:23:17;;;;;;;6.53;3.90;;;;;;;2.22;76.14;94489.34;4918039;29;20035;-70
2023/01/11 06:25:43;;;;;;;10.10;4.15;;;;;;;2.11;75.61;94489.13;4949544;29;20517;-70
2023/01/11 06:28:09;;;;;;;4.85;3.35;;;;;;;2.20;75.70;94493.72;4917702;29;20493;-70
2023/01/11 06:30:34;;;;;;;6.35;4.45;;;;;;;2.21;75.55;94501.34;4938496;28;20110;-70
2023/01/11 06:33:06;;;;;;;5.80;4.30;;;;;;;2.08;75.70;94487.56;4967744;28;20101;-70
2023/01/11 06:35:38;;;;;;;5.72;3.88;;;;;;;2.27;75.14;94501.94;4950741;29;20024;-70
2023/01/11 06:38:05;;;;;;;5.03;4.30;;;;;;;2.27;75.11;94504.50;4966250;28;20514;-70
2023/01/11 06:40:31;;;;;;;6.40;4.63;;;;;;;2.21;75.37;94493.66;4966853;28;20031;-71
2023/01/11 06:42:56;;;;;;;5.70;4.25;;;;;;;2.14;75.56;94487.22;4973789;28;20027;-70
2023/01/11 06:45:21;;;;;;;5.90;4.90;;;;;;;2.19;75.87;94497.22;4970491;28;20062;-70
2023/01/11 06:47:47;;;;;;;7.32;5.35;;;;;;;2.22;75.94;94499.59;4990037;28;20504;-70
2023/01/11 06:50:12;;;;;;;5.30;3.63;;;;;;;1.93;75.84;94490.97;4985501;28;20440;-70
2023/01/11 06:52:38;;;;;;;5.28;3.80;;;;;;;2.08;75.95;94514.91;4973752;28;20042;-70
2023/01/11 06:55:04;;;;;;;5.40;4.00;;;;;;;2.12;75.83;94521.53;4991191;28;20409;-70
2023/01/11 06:57:29;;;;;;;5.80;3.85;;;;;;;2.13;76.17;94518.06;4972532;28;20027;-70
2023/01/11 06:59:55;;;;;;;7.13;4.80;;;;;;;2.03;75.92;94525.41;4951564;28;20141;-70
2023/01/11 07:02:20;;;;;;;10.27;6.43;;;;;;;1.94;75.49;94528.47;4974264;28;20506;-70
2023/01/11 07:04:46;;;;;;;17.38;11.60;;;;;;;1.93;75.76;94537.06;4970488;28;20031;-70
2023/01/11 07:07:11;;;;;;;27.70;16.30;;;;;;;1.82;75.71;94524.84;4972512;28;20030;-70
2023/01/11 07:09:37;;;;;;;21.38;12.63;;;;;;;1.95;76.23;94533.53;4965498;28;20062;-70
2023/01/11 07:12:02;;;;;;;12.05;8.65;;;;;;;2.07;76.12;94544.84;4987818;28;20093;-70
2023/01/11 07:14:28;;;;;;;11.27;7.63;;;;;;;2.14;76.92;94540.22;4972064;28;20039;-70
2023/01/11 07:16:53;;;;;;;11.48;8.10;;;;;;;2.22;76.81;94548.31;4965961;28;20030;-70
2023/01/11 07:19:18;;;;;;;10.38;7.13;;;;;;;2.36;76.45;94556.06;4969945;28;20486;-70
2023/01/11 07:21:44;;;;;;;7.18;5.70;;;;;;;1.90;76.45;94475.75;4975086;28;20433;-70
2023/01/11 07:24:09;;;;;;;9.80;7.75;;;;;;;2.45;76.90;94553.03;4979817;28;20035;-70
2023/01/11 07:26:40;;;;;;;7.70;5.70;;;;;;;2.55;76.46;94550.75;4959266;28;20409;-70
2023/01/11 07:29:08;;;;;;;7.40;5.28;;;;;;;2.54;76.54;94546.56;4970384;28;20073;-70
2023/01/11 07:31:33;;;;;;;8.57;5.90;;;;;;;2.60;77.00;94551.34;4967217;28;20122;-70
2023/01/11 07:33:58;;;;;;;7.03;4.43;;;;;;;2.69;76.47;94558.50;4972496;28;20038;-70
2023/01/11 07:36:24;;;;;;;6.53;4.18;;;;;;;2.65;76.45;94549.34;4963906;28;20035;-71
2023/01/11 07:38:49;;;;;;;6.30;3.97;;;;;;;2.73;75.69;94556.63;4954473;28;20098;-70
2023/01/11 07:43:59;;;;;;;8.25;4.47;;;;;;;2.80;74.22;94560.47;4957230;28;20050;-70
2023/01/11 07:46:24;;;;;;;5.25;3.75;;;;;;;2.87;74.75;94566.91;4973093;28;20030;-70
2023/01/11 07:48:50;;;;;;;6.85;4.50;;;;;;;2.86;75.21;94564.44;4961061;28;20043;-70
2023/01/11 07:51:21;;;;;;;6.85;4.70;;;;;;;2.92;75.89;94564.06;4961585;28;20031;-70
2023/01/11 07:53:46;;;;;;;5.88;4.22;;;;;;;2.99;75.26;94565.41;4970823;28;20093;-70
2023/01/11 07:56:12;;;;;;;4.75;3.40;;;;;;;3.10;75.88;94573.31;4989510;28;20039;-70
2023/01/11 07:58:37;;;;;;;5.43;3.33;;;;;;;3.15;75.87;94575.63;4973237;28;20086;-70
2023/01/11 08:01:04;;;;;;;3.95;3.05;;;;;;;3.14;76.17;94592.72;4960873;28;20563;-70
2023/01/11 08:03:29;;;;;;;4.10;2.80;;;;;;;3.12;75.62;94576.63;4952094;28;20040;-70
2023/01/11 08:05:55;;;;;;;3.83;2.97;;;;;;;3.29;74.64;94585.91;4953247;29;20111;-70
2023/01/11 08:08:20;;;;;;;5.13;4.15;;;;;;;3.34;74.45;94595.91;4952077;29;20035;-70
2023/01/11 08:10:46;;;;;;;5.60;3.88;;;;;;;3.44;74.48;94602.16;4951972;29;20094;-70
2023/01/11 08:15:59;;;;;;;6.47;4.70;;;;;;;3.54;73.24;94611.00;4952135;29;20694;-70
2023/01/11 08:18:24;;;;;;;6.35;4.35;;;;;;;3.51;71.24;94592.34;4953981;28;20119;-70
2023/01/11 08:20:53;;;;;;;11.07;6.78;;;;;;;3.60;71.11;94616.69;4953762;29;20035;-70
2023/01/11 08:23:18;;;;;;;24.55;15.80;;;;;;;3.63;71.39;94627.59;4953778;29;20078;-70
2023/01/11 08:25:44;;;;;;;25.25;16.65;;;;;;;3.77;71.40;94631.94;4953612;29;20450;-70
2023/01/11 08:28:10;;;;;;;23.23;13.82;;;;;;;3.75;70.80;94626.06;4969701;28;20031;-70
2023/01/11 08:30:36;;;;;;;23.17;12.55;;;;;;;3.70;70.64;94625.50;4937611;29;20023;-70
2023/01/11 08:33:01;;;;;;;20.67;12.45;;;;;;;3.73;70.85;94633.00;4953368;28;20501;-70
2023/01/11 08:35:27;;;;;;;21.63;12.25;;;;;;;3.65;71.40;94635.22;4953545;28;20031;-71
2023/01/11 08:37:53;;;;;;;17.67;10.43;;;;;;;3.70;71.61;94635.78;4953371;28;20461;-70
2023/01/11 08:40:18;;;;;;;16.67;9.68;;;;;;;3.66;71.37;94645.41;4937404;29;20558;-70
2023/01/11 08:42:44;;;;;;;13.05;8.90;;;;;;;3.49;71.67;94637.88;4969283;28;20032;-70
2023/01/11 08:45:09;;;;;;;15.05;8.75;;;;;;;3.54;71.47;94634.09;4952662;28;20031;-70
2023/01/11 08:47:35;;;;;;;13.48;9.43;;;;;;;3.57;71.51;94657.06;4953046;28;20032;-70
2023/01/11 08:50:00;;;;;;;13.80;8.73;;;;;;;3.53;71.86;94650.41;4953153;28;20027;-70
2023/01/11 08:52:26;;;;;;;13.60;8.43;;;;;;;3.57;71.08;94664.75;4969172;28;20553;-70
2023/01/11 08:54:51;;;;;;;10.23;8.07;;;;;;;3.54;71.47;94662.38;4952944;29;20031;-70
2023/01/11 08:57:16;;;;;;;11.75;8.63;;;;;;;3.60;71.76;94668.06;4954214;29;20031;-70
2023/01/11 08:59:42;;;;;;;14.88;8.93;;;;;;;3.57;70.95;94667.31;4952941;29;20059;-70
2023/01/11 09:02:08;;;;;;;12.63;8.00;;;;;;;3.71;70.50;94668.28;4954116;29;20482;-70
2023/01/11 09:04:33;;;;;;;9.95;7.53;;;;;;;3.72;70.19;94665.59;4969208;28;20043;-70
2023/01/11 09:07:00;;;;;;;12.48;7.65;;;;;;;3.70;69.95;94662.28;4954032;29;20553;-70
2023/01/11 09:09:25;;;;;;;12.88;7.85;;;;;;;3.77;70.42;94662.78;4969144;28;20055;-70
2023/01/11 09:11:53;;;;;;;14.05;8.55;;;;;;;3.89;70.29;94663.78;4954001;28;20031;-70
2023/01/11 09:14:23;;;;;;;13.45;8.40;;;;;;;3.96;70.25;94671.06;4954290;28;20130;-70
2023/01/11 09:16:49;;;;;;;13.70;8.98;;;;;;;3.91;68.79;94655.06;4968715;28;20023;-70
2023/01/11 09:19:15;;;;;;;11.75;7.88;;;;;;;3.96;68.99;94665.91;4968794;28;20031;-70
2023/01/11 09:21:40;;;;;;;13.15;8.23;;;;;;;3.62;70.27;94666.22;4952545;29;20414;-70
2023/01/11 09:24:06;;;;;;;13.32;8.95;;;;;;;3.75;70.50;94656.88;4952387;28;20046;-70
2023/01/11 09:26:31;;;;;;;13.05;8.68;;;;;;;3.85;69.47;94667.47;4952551;29;20046;-70
2023/01/11 09:28:57;;;;;;;12.20;8.30;;;;;;;3.79;70.12;94659.19;4952346;29;20458;-70
2023/01/11 09:31:22;;;;;;;12.40;7.90;;;;;;;4.03;69.81;94664.63;4968671;28;20329;-70
2023/01/11 09:33:48;;;;;;;12.73;7.53;;;;;;;4.10;70.73;94664.28;4952257;28;20039;-70
2023/01/11 09:36:13;;;;;;;11.43;8.48;;;;;;;4.22;68.82;94655.81;4952399;29;20050;-70
2023/01/11 09:38:40;;;;;;;16.08;9.27;;;;;;;4.31;69.60;94665.53;4936404;29;20094;-70
2023/01/11 09:41:43;;;;;;;23.10;13.45;;;;;;;4.39;69.49;94667.66;4968311;28;20031;-71
2023/01/11 09:44:19;;;;;;;15.57;9.57;;;;;;;4.44;68.99;94671.59;4953786;28;20043;-70
2023/01/11 09:46:47;;;;;;;14.82;10.35;;;;;;;4.48;69.81;94675.66;4952202;29;20114;-70
2023/01/11 09:49:30;;;;;;;9.93;6.45;;;;;;;4.52;66.76;94668.56;4968281;28;20031;-70
2023/01/11 09:52:17;;;;;;;17.00;10.32;;;;;;;4.42;65.82;94668.28;4936878;29;20035;-70
2023/01/11 09:54:44;;;;;;;22.98;9.32;;;;;;;4.40;65.34;94664.13;4938685;29;20031;-70
2023/01/11 09:57:31;;;;;;;16.70;6.97;;;;;;;4.56;65.40;94676.91;4952307;28;20035;-70
2023/01/11 10:00:00;;;;;;;28.63;10.98;;;;;;;4.59;65.80;94669.81;4935992;29;20142;-70
2023/01/11 10:03:05;;;;;;;13.35;7.20;;;;;;;4.52;64.58;94683.16;4952996;29;20517;-70
2023/01/11 10:05:50;;;;;;;7.30;3.97;;;;;;;4.58;64.83;94677.66;4947944;28;20129;-70
2023/01/11 10:08:40;;;;;;;5.80;3.45;;;;;;;4.63;65.75;94678.19;4952802;28;20035;-70
2023/01/11 10:11:11;;;;;;;4.28;2.80;;;;;;;4.58;65.82;94680.22;4953088;28;20174;-70
2023/01/11 10:13:47;;;;;;;2.80;2.00;;;;;;;4.62;63.98;94682.50;4951767;29;20038;-70
2023/01/11 10:16:30;;;;;;;3.10;2.30;;;;;;;4.71;63.62;94683.69;4951786;29;20110;-70
2023/01/11 10:19:08;;;;;;;6.22;3.03;;;;;;;4.81;62.40;94683.94;4953148;28;20039;-70
2023/01/11 10:21:45;;;;;;;6.22;3.50;;;;;;;4.83;61.89;94671.81;4951759;29;20027;-70
2023/01/11 10:24:30;;;;;;;5.45;3.75;;;;;;;5.02;60.89;94671.47;4936883;28;20074;-70
2023/01/11 10:27:00;;;;;;;5.80;3.97;;;;;;;5.00;61.59;94676.72;4951464;28;20457;-70
2023/01/11 10:29:52;;;;;;;4.80;3.40;;;;;;;4.96;62.55;94672.69;4951912;28;20043;-70
2023/01/11 10:33:02;;;;;;;3.50;2.88;;;;;;;4.91;62.93;94675.53;4951796;29;20467;-70
2023/01/11 10:35:46;;;;;;;6.28;3.92;;;;;;;5.00;63.96;94674.13;4954270;28;20478;-70
2023/01/11 10:38:42;;;;;;;11.73;8.20;;;;;;;4.88;64.00;94633.72;4951683;28;20035;-70
2023/01/11 10:41:21;;;;;;;26.55;16.25;;;;;;;5.15;63.64;94672.34;4951697;29;20039;-70
2023/01/11 10:43:48;;;;;;;16.27;5.88;;;;;;;5.09;63.92;94658.09;4936652;29;20031;-70
2023/01/11 10:46:19;;;;;;;9.48;8.13;;;;;;;5.06;63.82;94653.16;4951596;28;20109;-70
2023/01/11 10:48:45;;;;;;;9.40;8.40;;;;;;;5.04;63.22;94651.59;4935569;28;20036;-70
2023/01/11 10:51:31;;;;;;;7.65;5.63;;;;;;;5.20;62.53;94659.16;4951500;28;20466;-70
2023/01/11 10:54:11;;;;;;;9.60;6.15;;;;;;;5.21;62.65;94656.50;4951386;29;20046;-70
2023/01/11 10:57:16;;;;;;;27.70;21.52;;;;;;;5.31;62.00;94661.88;4951348;29;20374;-70
2023/01/11 11:00:12;;;;;;;16.88;12.18;;;;;;;5.34;61.04;94661.69;4911899;29;20143;-70
2023/01/11 11:02:37;;;;;;;8.25;6.47;;;;;;;5.37;60.45;94649.41;4951178;28;20532;-70
2023/01/11 11:05:56;;;;;;;4.57;3.42;;;;;;;5.51;63.45;94652.84;4951232;29;20174;-72
2023/01/11 11:08:27;;;;;;;4.90;3.25;;;;;;;5.48;61.63;94643.56;4967664;28;20039;-71
2023/01/11 11:10:58;;;;;;;5.07;3.60;;;;;;;5.77;61.27;94649.41;4938759;29;20051;-70
2023/01/11 11:13:48;;;;;;;7.15;5.00;;;;;;;5.84;60.48;94654.97;4954892;28;20071;-70
2023/01/11 11:16:22;;;;;;;5.13;3.58;;;;;;;5.94;59.97;94652.63;4954948;29;20122;-70
2023/01/11 11:18:51;;;;;;;4.50;3.50;;;;;;;5.96;59.64;94645.59;4955920;28;20062;-70
2023/01/11 11:21:41;;;;;;;4.78;3.20;;;;;;;5.89;59.43;94652.91;4955271;28;20068;-70
2023/01/11 11:24:17;;;;;;;5.90;3.63;;;;;;;5.88;58.96;94650.41;4956093;28;20138;-70
2023/01/11 11:26:45;;;;;;;6.22;3.25;;;;;;;5.90;58.42;94649.38;4954743;29;20027;-70
2023/01/11 11:29:11;;;;;;;4.75;3.40;;;;;;;5.84;58.67;94654.97;4955080;28;20542;-70
2023/01/11 11:31:40;;;;;;;4.07;3.10;;;;;;;5.78;58.59;94656.19;4954494;28;20031;-71
2023/01/11 11:34:07;;;;;;;3.63;2.85;;;;;;;5.80;58.45;94654.34;4955011;28;20067;-70
2023/01/11 11:36:45;;;;;;;7.28;5.47;;;;;;;5.76;58.21;94668.34;4955044;28;20086;-70
2023/01/11 11:39:26;;;;;;;4.65;3.45;;;;;;;5.76;57.45;94668.34;4956036;28;20050;-69
2023/01/11 11:41:52;;;;;;;4.00;2.70;;;;;;;5.77;56.93;94667.44;4939464;29;20034;-70
2023/01/11 11:44:20;;;;;;;3.88;2.78;;;;;;;5.64;57.52;94663.19;4954773;28;20517;-69
2023/01/11 11:47:15;;;;;;;4.60;3.17;;;;;;;5.74;58.02;94674.53;4954447;29;20106;-70
2023/01/11 11:49:41;;;;;;;5.82;3.92;;;;;;;5.60;57.63;94652.28;4965898;28;20055;-70
2023/01/11 11:52:14;;;;;;;5.20;3.83;;;;;;;5.53;57.64;94669.03;4954348;28;20060;-69
2023/01/11 11:54:49;;;;;;;8.38;5.07;;;;;;;5.50;58.46;94676.97;4954604;28;20506;-69
2023/01/11 11:57:19;;;;;;;8.45;4.88;;;;;;;5.51;56.75;94663.16;4955471;28;20031;-69
2023/01/11 11:59:46;;;;;;;4.93;3.33;;;;;;;5.44;55.77;94672.22;4954645;28;20047;-69
2023/01/11 12:02:27;;;;;;;5.47;3.42;;;;;;;5.40;57.88;94676.72;4954187;28;20517;-69
2023/01/11 12:04:52;;;;;;;5.10;3.83;;;;;;;5.35;56.83;94669.31;4970179;28;20035;-69
2023/01/11 12:07:22;;;;;;;3.92;3.20;;;;;;;5.26;57.50;94659.59;4953837;29;20023;-69
2023/01/11 12:09:49;;;;;;;5.90;4.00;;;;;;;5.33;58.47;94673.75;4953972;28;20039;-70
2023/01/11 12:12:16;;;;;;;8.43;5.28;;;;;;;5.44;57.52;94672.22;4953973;28;20027;-69
2023/01/11 12:14:42;;;;;;;6.78;4.10;;;;;;;5.44;57.11;94672.22;4954032;28;20421;-70